createdAt,value
2023-01-26T00:01:19.718Z,1.98
2023-01-26T00:03:46.876Z,2.56
2023-01-26T00:06:16.379Z,2.48
2023-01-26T00:08:44.630Z,3.16
2023-01-26T00:11:13.966Z,3.19
2023-01-26T00:13:41.051Z,3.62
2023-01-26T00:16:13.577Z,4.04
2023-01-26T00:18:40.831Z,4.32
2023-01-26T00:21:13.971Z,2.92
2023-01-26T00:23:40.585Z,3.50
2023-01-26T00:26:08.689Z,2.65
2023-01-26T00:28:35.240Z,2.43
2023-01-26T00:31:06.658Z,2.03
2023-01-26T00:33:33.677Z,2.55
2023-01-26T00:36:00.442Z,2.94
2023-01-26T00:38:27.396Z,2.66
2023-01-26T00:40:53.991Z,1.73
2023-01-26T00:43:20.602Z,2.12
2023-01-26T00:45:47.717Z,1.92
2023-01-26T00:48:14.317Z,2.46
2023-01-26T00:50:40.868Z,2.50
2023-01-26T00:53:07.347Z,2.88
2023-01-26T00:55:33.867Z,2.85
2023-01-26T00:58:01.606Z,2.67
2023-01-26T01:00:28.427Z,2.34
2023-01-26T01:02:56.860Z,2.79
2023-01-26T01:05:24.667Z,2.95
2023-01-26T01:07:51.585Z,2.80
2023-01-26T01:10:18.451Z,2.38
2023-01-26T01:12:45.418Z,2.97
2023-01-26T01:15:12.146Z,3.13
2023-01-26T01:17:38.823Z,2.85
2023-01-26T01:20:06.763Z,3.33
2023-01-26T01:22:34.212Z,2.78
2023-01-26T01:25:00.687Z,2.30
2023-01-26T01:27:27.246Z,2.79
2023-01-26T01:29:54.173Z,3.15
2023-01-26T01:32:21.059Z,3.20
2023-01-26T01:34:48.058Z,3.44
2023-01-26T01:37:15.145Z,3.58
2023-01-26T01:39:41.671Z,3.71
2023-01-26T01:42:08.448Z,3.57
2023-01-26T01:44:36.581Z,3.26
2023-01-26T01:47:05.623Z,3.86
2023-01-26T01:49:36.814Z,3.33
2023-01-26T01:52:18.327Z,3.59
2023-01-26T01:54:51.082Z,3.86
2023-01-26T01:57:28.542Z,3.70
2023-01-26T01:59:59.943Z,2.99
2023-01-26T02:02:26.649Z,3.54
2023-01-26T02:04:54.400Z,3.44
2023-01-26T02:07:21.425Z,3.72
2023-01-26T02:10:06.483Z,3.44
2023-01-26T02:12:33.863Z,3.21
2023-01-26T02:15:01.453Z,3.69
2023-01-26T02:17:27.974Z,3.06
2023-01-26T02:20:16.276Z,3.23
2023-01-26T02:22:52.343Z,3.86
2023-01-26T02:25:40.539Z,3.40
2023-01-26T02:28:07.054Z,3.23
2023-01-26T02:30:33.716Z,3.08
2023-01-26T02:33:00.370Z,3.01
2023-01-26T02:35:26.857Z,3.55
2023-01-26T02:37:53.656Z,3.20
2023-01-26T02:40:38.507Z,3.08
2023-01-26T02:43:05.222Z,3.21
2023-01-26T02:45:32.973Z,3.25
2023-01-26T02:48:04.548Z,2.52
2023-01-26T02:50:31.187Z,2.68
2023-01-26T02:52:57.744Z,2.14
2023-01-26T02:55:28.670Z,2.72
2023-01-26T02:57:56.948Z,3.07
2023-01-26T03:00:28.914Z,3.45
2023-01-26T03:02:57.261Z,3.38
2023-01-26T03:05:23.926Z,2.69
2023-01-26T03:07:50.630Z,2.27
2023-01-26T03:10:18.205Z,2.69
2023-01-26T03:12:45.587Z,3.11
2023-01-26T03:15:31.423Z,3.08
2023-01-26T03:18:24.061Z,2.90
2023-01-26T03:21:09.151Z,2.49
2023-01-26T03:23:54.137Z,2.83
2023-01-26T03:26:39.263Z,3.60
2023-01-26T03:29:05.765Z,3.87
2023-01-26T03:31:32.476Z,3.43
2023-01-26T03:33:58.993Z,3.63
2023-01-26T03:36:25.545Z,3.41
2023-01-26T03:38:51.982Z,3.71
2023-01-26T03:41:37.644Z,3.27
2023-01-26T03:44:22.762Z,3.92
2023-01-26T03:47:07.512Z,3.67
2023-01-26T03:49:52.461Z,4.00
2023-01-26T03:52:37.228Z,4.00
2023-01-26T03:55:22.360Z,3.87
2023-01-26T03:57:49.003Z,4.15
2023-01-26T04:00:15.934Z,3.32
2023-01-26T04:03:00.959Z,3.42
2023-01-26T04:05:45.804Z,3.29
2023-01-26T04:08:24.471Z,3.60
2023-01-26T04:10:54.320Z,3.73
2023-01-26T04:13:41.022Z,3.24
2023-01-26T04:16:27.955Z,3.42
2023-01-26T04:19:13.674Z,3.02
2023-01-26T04:21:40.351Z,3.25
2023-01-26T04:24:16.733Z,3.21
2023-01-26T04:26:43.945Z,3.16
2023-01-26T04:29:12.634Z,3.67
2023-01-26T04:31:40.120Z,2.93
2023-01-26T04:34:10.469Z,3.72
2023-01-26T04:36:36.968Z,3.63
2023-01-26T04:39:03.917Z,3.44
2023-01-26T04:41:31.503Z,3.15
2023-01-26T04:43:58.707Z,3.72
2023-01-26T04:46:25.670Z,3.82
2023-01-26T04:48:52.619Z,4.23
2023-01-26T04:51:20.671Z,4.16
2023-01-26T04:53:48.347Z,3.86
2023-01-26T04:56:20.567Z,3.88
2023-01-26T04:58:47.034Z,4.29
2023-01-26T05:01:13.616Z,3.43
2023-01-26T05:03:40.694Z,3.34
2023-01-26T05:06:07.255Z,3.17
2023-01-26T05:08:33.924Z,3.03
2023-01-26T05:11:00.401Z,3.51
2023-01-26T05:13:26.891Z,3.48
2023-01-26T05:15:53.384Z,3.57
2023-01-26T05:18:19.858Z,3.67
2023-01-26T05:20:46.867Z,3.85
2023-01-26T05:23:13.385Z,3.07
2023-01-26T05:25:39.959Z,3.45
2023-01-26T05:28:06.451Z,3.19
2023-01-26T05:30:33.015Z,3.43
2023-01-26T05:33:04.652Z,3.56
2023-01-26T05:35:31.289Z,3.56
2023-01-26T05:37:57.972Z,3.82
2023-01-26T05:40:26.038Z,3.82
2023-01-26T05:42:53.792Z,3.64
2023-01-26T05:45:20.845Z,3.77
2023-01-26T05:47:48.609Z,3.87
2023-01-26T05:50:16.242Z,3.62
2023-01-26T05:52:44.087Z,3.13
2023-01-26T05:55:10.559Z,3.65
2023-01-26T05:57:37.167Z,3.25
2023-01-26T06:00:07.222Z,3.44
2023-01-26T06:02:33.795Z,3.87
2023-01-26T06:05:00.326Z,4.02
2023-01-26T06:07:26.938Z,3.68
2023-01-26T06:09:53.486Z,3.57
2023-01-26T06:12:21.038Z,2.83
2023-01-26T06:14:47.718Z,2.99
2023-01-26T06:17:15.696Z,2.66
2023-01-26T06:19:42.291Z,2.57
2023-01-26T06:22:10.119Z,2.71
2023-01-26T06:24:36.909Z,3.31
2023-01-26T06:27:06.893Z,3.49
2023-01-26T06:29:33.935Z,3.35
2023-01-26T06:32:00.715Z,3.17
2023-01-26T06:34:27.239Z,2.86
2023-01-26T06:36:53.937Z,3.00
2023-01-26T06:39:20.614Z,3.23
2023-01-26T06:41:47.060Z,3.19
2023-01-26T06:44:13.571Z,3.27
2023-01-26T06:46:40.134Z,3.79
2023-01-26T06:49:06.717Z,3.50
2023-01-26T06:51:39.368Z,3.58
2023-01-26T06:54:05.827Z,3.77
2023-01-26T06:56:32.486Z,3.52
2023-01-26T06:58:58.995Z,3.27
2023-01-26T07:01:26.501Z,3.35
2023-01-26T07:03:55.013Z,2.91
2023-01-26T07:06:25.330Z,3.22
2023-01-26T07:08:51.861Z,3.89
2023-01-26T07:11:20.069Z,2.72
2023-01-26T07:13:46.626Z,3.64
2023-01-26T07:16:15.363Z,3.66
2023-01-26T07:18:42.142Z,3.57
2023-01-26T07:21:13.611Z,3.94
2023-01-26T07:23:40.600Z,3.39
2023-01-26T07:26:07.411Z,3.35
2023-01-26T07:28:39.231Z,3.08
2023-01-26T07:31:07.127Z,3.36
2023-01-26T07:33:34.874Z,3.47
2023-01-26T07:36:01.733Z,3.38
2023-01-26T07:38:29.150Z,3.69
2023-01-26T07:40:56.355Z,3.12
2023-01-26T07:43:23.058Z,3.12
2023-01-26T07:45:51.734Z,2.81
2023-01-26T07:48:23.284Z,2.71
2023-01-26T07:50:50.883Z,3.49
2023-01-26T07:53:22.889Z,3.09
2023-01-26T07:55:49.960Z,3.03
2023-01-26T07:58:18.512Z,3.08
2023-01-26T08:00:47.192Z,3.60
2023-01-26T08:03:14.080Z,2.79
2023-01-26T08:05:40.617Z,2.72
2023-01-26T08:08:07.253Z,3.01
2023-01-26T08:10:33.951Z,3.40
2023-01-26T08:13:01.060Z,3.30
2023-01-26T08:15:28.501Z,3.46
2023-01-26T08:17:55.217Z,3.60
2023-01-26T08:20:22.052Z,3.79
2023-01-26T08:22:48.764Z,4.18
2023-01-26T08:25:15.463Z,4.16
2023-01-26T08:27:42.002Z,3.83
2023-01-26T08:30:09.384Z,3.17
2023-01-26T08:32:36.139Z,2.83
2023-01-26T08:35:02.756Z,3.22
2023-01-26T08:37:29.451Z,2.69
2023-01-26T08:39:55.985Z,2.52
2023-01-26T08:42:22.925Z,3.23
2023-01-26T08:44:49.514Z,3.39
2023-01-26T08:47:15.951Z,3.26
2023-01-26T08:49:42.469Z,3.15
2023-01-26T08:52:09.157Z,2.84
2023-01-26T08:54:35.798Z,3.24
2023-01-26T08:57:02.325Z,3.20
2023-01-26T08:59:28.846Z,3.26
2023-01-26T09:01:55.855Z,3.18
2023-01-26T09:04:22.530Z,2.67
2023-01-26T09:06:49.041Z,3.24
2023-01-26T09:09:15.802Z,3.12
2023-01-26T09:11:42.337Z,3.40
2023-01-26T09:14:08.983Z,3.50
2023-01-26T09:16:35.595Z,3.33
2023-01-26T09:19:02.392Z,3.45
2023-01-26T09:21:29.151Z,3.85
2023-01-26T09:23:57.282Z,3.70
2023-01-26T09:26:24.173Z,4.51
2023-01-26T09:28:52.527Z,4.51
2023-01-26T09:31:19.316Z,3.99
2023-01-26T09:33:46.235Z,3.37
2023-01-26T09:36:13.161Z,3.91
2023-01-26T09:38:40.271Z,4.40
2023-01-26T09:41:27.993Z,4.20
2023-01-26T09:43:59.796Z,4.73
2023-01-26T09:46:40.826Z,5.12
2023-01-26T09:49:30.889Z,4.54
2023-01-26T09:52:06.521Z,4.74
2023-01-26T09:54:33.012Z,4.42
2023-01-26T09:57:12.279Z,3.51
2023-01-26T09:59:59.379Z,4.48
2023-01-26T10:02:35.103Z,3.99
2023-01-26T10:05:07.344Z,4.02
2023-01-26T10:07:33.893Z,3.73
2023-01-26T10:10:00.668Z,3.39
2023-01-26T10:12:35.603Z,3.89
2023-01-26T10:15:10.746Z,3.07
2023-01-26T10:17:40.474Z,3.72
2023-01-26T10:20:10.202Z,3.47
2023-01-26T10:22:49.070Z,3.59
2023-01-26T10:25:18.667Z,4.25
2023-01-26T10:27:45.989Z,3.78
2023-01-26T10:30:14.436Z,4.57
2023-01-26T10:32:42.920Z,4.23
2023-01-26T10:35:24.166Z,4.04
2023-01-26T10:37:54.554Z,4.06
2023-01-26T10:40:21.717Z,4.05
2023-01-26T10:42:57.465Z,3.64
2023-01-26T10:45:27.297Z,4.29
2023-01-26T10:48:16.226Z,4.03
2023-01-26T10:50:42.816Z,4.07
2023-01-26T10:53:16.529Z,3.75
2023-01-26T10:55:43.052Z,3.24
2023-01-26T10:58:43.999Z,3.46
2023-01-26T11:01:12.450Z,3.81
2023-01-26T11:03:39.563Z,3.46
2023-01-26T11:06:08.394Z,3.79
2023-01-26T11:08:36.731Z,4.29
2023-01-26T11:11:04.764Z,4.09
2023-01-26T11:13:31.299Z,3.81
2023-01-26T11:16:20.666Z,3.64
2023-01-26T11:18:56.214Z,3.97
2023-01-26T11:21:36.934Z,3.71
2023-01-26T11:24:13.758Z,3.95
2023-01-26T11:26:54.704Z,3.96
2023-01-26T11:29:34.251Z,4.01
2023-01-26T11:32:20.068Z,4.51
2023-01-26T11:34:53.761Z,3.80
2023-01-26T11:37:29.190Z,4.42
2023-01-26T11:39:58.710Z,4.09
2023-01-26T11:43:08.923Z,3.50
2023-01-26T11:45:51.321Z,3.64
2023-01-26T11:48:57.192Z,3.48
2023-01-26T11:51:30.607Z,3.48
2023-01-26T11:54:24.923Z,4.11
2023-01-26T11:57:10.398Z,4.71
2023-01-26T11:59:41.201Z,4.19
2023-01-26T12:02:30.887Z,4.20
2023-01-26T12:05:03.290Z,4.14
2023-01-26T12:07:51.415Z,3.79
2023-01-26T12:10:21.499Z,3.96
2023-01-26T12:12:51.628Z,4.08
2023-01-26T12:15:29.788Z,4.22
2023-01-26T12:18:12.584Z,4.36
2023-01-26T12:21:06.127Z,4.77
2023-01-26T12:23:48.718Z,4.63
2023-01-26T12:26:18.273Z,3.96
2023-01-26T12:29:09.497Z,3.89
2023-01-26T12:31:45.631Z,4.11
2023-01-26T12:34:13.184Z,4.03
2023-01-26T12:36:59.142Z,4.29
2023-01-26T12:39:39.685Z,4.17
2023-01-26T12:42:31.635Z,4.68
2023-01-26T12:45:01.818Z,4.95
2023-01-26T12:47:41.865Z,5.23
2023-01-26T12:50:13.690Z,4.93
2023-01-26T12:52:55.291Z,4.97
2023-01-26T12:55:23.754Z,5.01
2023-01-26T12:58:06.180Z,4.57
2023-01-26T13:00:34.871Z,4.14
2023-01-26T13:03:05.669Z,3.78
2023-01-26T13:05:36.053Z,4.26
2023-01-26T13:08:47.113Z,4.26
2023-01-26T13:11:42.765Z,3.70
2023-01-26T13:14:30.621Z,3.89
2023-01-26T13:16:58.561Z,3.87
2023-01-26T13:19:43.557Z,4.21
2023-01-26T13:22:40.913Z,3.73
2023-01-26T13:25:36.873Z,3.55
2023-01-26T13:28:12.892Z,3.67
2023-01-26T13:30:44.614Z,3.52
2023-01-26T13:33:21.896Z,3.66
2023-01-26T13:35:50.759Z,3.35
2023-01-26T13:38:40.222Z,3.45
2023-01-26T13:41:20.709Z,4.07
2023-01-26T13:43:53.307Z,4.34
2023-01-26T13:46:28.310Z,3.95
2023-01-26T13:48:55.883Z,3.64
2023-01-26T13:51:26.387Z,4.11
2023-01-26T13:54:12.527Z,4.36
2023-01-26T13:56:43.920Z,4.15
2023-01-26T13:59:12.531Z,4.54
2023-01-26T14:01:53.635Z,4.14
2023-01-26T14:04:24.351Z,3.73
2023-01-26T14:06:58.731Z,4.32
2023-01-26T14:09:30.483Z,4.35
2023-01-26T14:12:05.103Z,3.86
2023-01-26T14:14:37.032Z,4.71
2023-01-26T14:17:10.830Z,4.30
2023-01-26T14:19:40.553Z,4.71
2023-01-26T14:22:13.505Z,4.81
2023-01-26T14:24:41.354Z,4.89
2023-01-26T14:27:35.121Z,5.54
2023-01-26T14:30:02.661Z,4.81
2023-01-26T14:32:29.891Z,4.25
2023-01-26T14:35:00.684Z,5.05
2023-01-26T14:37:28.330Z,5.44
2023-01-26T14:40:20.338Z,5.17
2023-01-26T14:42:48.716Z,4.84
2023-01-26T14:45:15.401Z,5.11
2023-01-26T14:47:42.916Z,4.39
2023-01-26T14:50:22.324Z,4.66
2023-01-26T14:52:49.165Z,4.35
2023-01-26T14:55:28.083Z,4.73
2023-01-26T14:57:55.614Z,4.95
2023-01-26T15:00:31.359Z,5.03
2023-01-26T15:02:59.142Z,4.49
2023-01-26T15:05:36.831Z,4.79
2023-01-26T15:08:19.245Z,4.83
2023-01-26T15:11:16.032Z,5.26
2023-01-26T15:13:45.136Z,5.08
2023-01-26T15:16:18.192Z,4.89
2023-01-26T15:18:45.153Z,4.41
2023-01-26T15:21:14.530Z,4.80
2023-01-26T15:23:43.231Z,5.16
2023-01-26T15:26:28.616Z,5.11
2023-01-26T15:28:57.114Z,5.21
2023-01-26T15:31:28.476Z,5.24
2023-01-26T15:33:56.097Z,5.24
2023-01-26T15:36:25.651Z,5.11
2023-01-26T15:38:58.706Z,4.89
2023-01-26T15:41:25.474Z,4.92
2023-01-26T15:43:51.987Z,5.10
2023-01-26T15:46:18.541Z,4.44
2023-01-26T15:48:45.035Z,4.91
2023-01-26T15:51:14.958Z,5.24
2023-01-26T15:53:41.847Z,5.20
2023-01-26T15:56:13.397Z,5.17
2023-01-26T15:58:40.658Z,5.08
2023-01-26T16:01:09.969Z,4.72
2023-01-26T16:03:36.500Z,4.32
2023-01-26T16:06:03.248Z,4.51
2023-01-26T16:08:29.722Z,4.81
2023-01-26T16:10:56.874Z,5.39
2023-01-26T16:13:23.494Z,5.70
2023-01-26T16:15:52.307Z,5.60
2023-01-26T16:18:19.403Z,4.81
2023-01-26T16:20:47.745Z,5.12
2023-01-26T16:23:24.181Z,5.13
2023-01-26T16:25:51.336Z,5.67
2023-01-26T16:28:19.253Z,5.98
2023-01-26T16:30:47.145Z,5.61
2023-01-26T16:33:16.383Z,5.49
2023-01-26T16:35:43.702Z,5.09
2023-01-26T16:38:13.174Z,5.31
2023-01-26T16:40:40.733Z,5.05
2023-01-26T16:43:17.177Z,4.55
2023-01-26T16:45:43.784Z,4.90
2023-01-26T16:48:14.934Z,4.92
2023-01-26T16:50:42.897Z,4.90
2023-01-26T16:53:26.159Z,5.17
2023-01-26T16:55:52.926Z,4.85
2023-01-26T16:58:20.105Z,4.71
2023-01-26T17:00:47.530Z,5.18
2023-01-26T17:03:14.468Z,5.37
2023-01-26T17:05:41.274Z,5.33
2023-01-26T17:08:08.058Z,5.11
2023-01-26T17:10:34.675Z,5.53
2023-01-26T17:13:01.652Z,5.35
2023-01-26T17:15:29.246Z,5.22
2023-01-26T17:17:56.312Z,5.48
2023-01-26T17:20:23.182Z,5.49
2023-01-26T17:22:50.067Z,5.56
2023-01-26T17:25:18.130Z,5.53
2023-01-26T17:27:46.383Z,5.74
2023-01-26T17:30:13.258Z,5.24
2023-01-26T17:32:41.883Z,5.08
2023-01-26T17:35:08.710Z,5.05
2023-01-26T17:37:35.706Z,5.15
2023-01-26T17:40:02.190Z,5.10
2023-01-26T17:42:30.091Z,5.56
2023-01-26T17:44:57.841Z,5.72
2023-01-26T17:47:27.585Z,6.15
2023-01-26T17:49:54.043Z,6.23
2023-01-26T17:52:20.506Z,5.84
2023-01-26T17:54:49.113Z,6.21
2023-01-26T17:57:15.720Z,6.10
2023-01-26T17:59:42.266Z,6.20
2023-01-26T18:02:11.897Z,5.88
2023-01-26T18:04:38.379Z,5.61
2023-01-26T18:07:05.059Z,5.85
2023-01-26T18:09:32.025Z,5.94
2023-01-26T18:11:58.539Z,6.26
2023-01-26T18:14:25.035Z,6.05
2023-01-26T18:16:51.563Z,5.66
2023-01-26T18:19:18.917Z,5.43
2023-01-26T18:21:45.460Z,5.32
2023-01-26T18:24:12.034Z,5.64
2023-01-26T18:26:38.767Z,6.01
2023-01-26T18:29:06.133Z,5.02
2023-01-26T18:31:36.820Z,6.17
2023-01-26T18:34:04.109Z,5.48
2023-01-26T18:36:31.205Z,5.93
2023-01-26T18:39:00.236Z,5.67
2023-01-26T18:41:28.291Z,5.45
2023-01-26T18:43:55.415Z,5.12
2023-01-26T18:46:22.696Z,5.69
2023-01-26T18:48:49.251Z,6.05
2023-01-26T18:51:15.824Z,5.91
2023-01-26T18:53:42.394Z,5.89
2023-01-26T18:56:11.110Z,5.40
2023-01-26T18:58:39.027Z,5.83
2023-01-26T19:01:09.767Z,5.62
2023-01-26T19:03:37.364Z,5.47
2023-01-26T19:06:07.324Z,5.85
2023-01-26T19:08:37.343Z,5.37
2023-01-26T19:11:05.924Z,5.08
2023-01-26T19:13:32.487Z,5.72
2023-01-26T19:15:59.004Z,5.96
2023-01-26T19:18:25.735Z,6.10
2023-01-26T19:20:59.306Z,4.90
2023-01-26T19:23:26.354Z,5.66
2023-01-26T19:25:53.211Z,5.61
2023-01-26T19:28:20.037Z,5.90
2023-01-26T19:30:47.264Z,6.12
2023-01-26T19:33:27.927Z,6.24
2023-01-26T19:35:56.187Z,6.56
2023-01-26T19:38:23.544Z,6.46
2023-01-26T19:40:51.780Z,6.80
2023-01-26T19:43:19.161Z,6.77
2023-01-26T19:45:50.554Z,6.80
2023-01-26T19:48:17.121Z,6.77
2023-01-26T19:50:43.897Z,6.86
2023-01-26T19:53:10.937Z,6.78
2023-01-26T19:55:37.748Z,6.53
2023-01-26T19:58:04.320Z,6.88
2023-01-26T20:00:30.948Z,6.95
2023-01-26T20:02:57.516Z,6.67
2023-01-26T20:05:24.041Z,6.86
2023-01-26T20:07:50.720Z,6.63
2023-01-26T20:10:17.517Z,6.70
2023-01-26T20:12:44.482Z,6.58
2023-01-26T20:15:11.475Z,7.00
2023-01-26T20:17:38.227Z,7.04
2023-01-26T20:20:05.365Z,6.71
2023-01-26T20:22:34.228Z,6.75
2023-01-26T20:25:01.088Z,6.39
2023-01-26T20:27:29.243Z,6.65
2023-01-26T20:29:56.120Z,6.78
2023-01-26T20:32:22.795Z,6.94
2023-01-26T20:34:49.465Z,6.88
2023-01-26T20:37:16.247Z,6.78
2023-01-26T20:39:44.982Z,6.81
2023-01-26T20:42:16.505Z,7.05
2023-01-26T20:44:43.554Z,5.92
2023-01-26T20:47:10.182Z,6.73
2023-01-26T20:49:37.359Z,6.54
2023-01-26T20:52:08.367Z,6.70
2023-01-26T20:54:35.635Z,6.73
2023-01-26T20:57:02.658Z,6.99
2023-01-26T20:59:30.374Z,7.04
2023-01-26T21:01:57.219Z,6.96
2023-01-26T21:04:23.816Z,7.23
2023-01-26T21:06:50.533Z,7.22
2023-01-26T21:09:17.190Z,7.21
2023-01-26T21:11:43.733Z,7.26
2023-01-26T21:14:12.113Z,7.26
2023-01-26T21:16:38.659Z,7.21
2023-01-26T21:19:05.363Z,7.03
2023-01-26T21:21:32.077Z,7.25
2023-01-26T21:23:58.753Z,6.75
2023-01-26T21:26:27.655Z,6.67
2023-01-26T21:28:56.801Z,6.67
2023-01-26T21:31:25.430Z,7.07
2023-01-26T21:33:52.703Z,7.23
2023-01-26T21:36:24.340Z,7.09
2023-01-26T21:38:52.234Z,7.19
2023-01-26T21:41:39.866Z,7.28
2023-01-26T21:44:53.503Z,7.31
2023-01-26T21:47:20.080Z,7.19
2023-01-26T21:49:47.684Z,7.36
2023-01-26T21:52:32.828Z,7.27
2023-01-26T21:54:59.310Z,7.23
2023-01-26T21:57:44.635Z,7.31
2023-01-26T22:00:11.925Z,7.15
2023-01-26T22:02:38.802Z,7.17
2023-01-26T22:05:05.640Z,7.24
2023-01-26T22:07:32.191Z,7.32
2023-01-26T22:09:58.752Z,7.25
2023-01-26T22:12:25.266Z,7.26
2023-01-26T22:14:52.332Z,7.34
2023-01-26T22:17:18.805Z,7.38
2023-01-26T22:19:45.300Z,7.22
2023-01-26T22:22:12.555Z,7.32
2023-01-26T22:24:39.052Z,7.36
2023-01-26T22:27:08.147Z,7.39
2023-01-26T22:29:34.778Z,7.14
2023-01-26T22:32:02.582Z,7.24
2023-01-26T22:34:29.131Z,7.37
2023-01-26T22:36:55.609Z,7.24
2023-01-26T22:39:22.168Z,7.49
2023-01-26T22:41:48.718Z,7.52
2023-01-26T22:44:15.261Z,7.57
2023-01-26T22:46:41.753Z,7.51
2023-01-26T22:49:09.819Z,7.53
2023-01-26T22:51:37.537Z,7.56
2023-01-26T22:54:04.966Z,7.64
2023-01-26T22:56:31.591Z,7.65
2023-01-26T22:59:00.489Z,7.72
2023-01-26T23:01:32.138Z,7.73
2023-01-26T23:03:59.322Z,7.65
2023-01-26T23:06:27.299Z,7.47
2023-01-26T23:08:54.506Z,7.19
2023-01-26T23:11:26.901Z,7.32
2023-01-26T23:13:54.936Z,7.39
2023-01-26T23:16:23.550Z,7.35
2023-01-26T23:18:54.604Z,7.37
2023-01-26T23:21:21.208Z,7.41
2023-01-26T23:23:47.724Z,7.42
2023-01-26T23:26:14.253Z,7.25
2023-01-26T23:28:42.336Z,7.10
2023-01-26T23:31:10.015Z,6.96
2023-01-26T23:33:37.275Z,6.71
2023-01-26T23:36:04.867Z,6.65
2023-01-26T23:38:31.954Z,7.07
2023-01-26T23:41:00.413Z,7.20
2023-01-26T23:43:27.425Z,7.28
2023-01-26T23:45:56.273Z,7.41
2023-01-26T23:48:23.363Z,7.71
2023-01-26T23:51:10.108Z,7.38
2023-01-26T23:53:37.184Z,7.69
2023-01-26T23:56:07.382Z,7.40
2023-01-26T23:58:34.087Z,7.45
